sensor_id;sensor_type;location;lat;lon;timestamp;pressure;altitude;pressure_sealevel;temperature;humidity
49835;BME280;35729;52.090;13.162;2024-02-21T00:01:27;101588.16;;;7.01;100.00
49835;BME280;35729;52.090;13.162;2024-02-21T00:03:58;101584.66;;;7.01;100.00
49835;BME280;35729;52.090;13.162;2024-02-21T00:06:26;101588.16;;;7.03;100.00
49835;BME280;35729;52.090;13.162;2024-02-21T00:08:54;101575.09;;;7.00;100.00
49835;BME280;35729;52.090;13.162;2024-02-21T00:11:23;101576.84;;;7.03;100.00
49835;BME280;35729;52.090;13.162;2024-02-21T00:13:51;101576.84;;;7.03;100.00
49835;BME280;35729;52.090;13.162;2024-02-21T00:16:26;101569.00;;;7.03;100.00
49835;BME280;35729;52.090;13.162;2024-02-21T00:18:57;101570.81;;;7.05;100.00
49835;BME280;35729;52.090;13.162;2024-02-21T00:21:26;101562.06;;;7.05;100.00
49835;BME280;35729;52.090;13.162;2024-02-21T00:23:54;101571.66;;;7.06;100.00
49835;BME280;35729;52.090;13.162;2024-02-21T00:26:23;101561.22;;;7.06;99.93
49835;BME280;35729;52.090;13.162;2024-02-21T00:28:51;101560.38;;;7.08;100.00
49835;BME280;35729;52.090;13.162;2024-02-21T00:31:19;101558.63;;;7.07;100.00
49835;BME280;35729;52.090;13.162;2024-02-21T00:33:48;101567.34;;;7.09;98.18
49835;BME280;35729;52.090;13.162;2024-02-21T00:36:19;101558.66;;;7.10;99.85
49835;BME280;35729;52.090;13.162;2024-02-21T00:38:47;101564.72;;;7.12;100.00
49835;BME280;35729;52.090;13.162;2024-02-21T00:41:16;101565.63;;;7.13;100.00
49835;BME280;35729;52.090;13.162;2024-02-21T00:43:44;101559.50;;;7.14;100.00
49835;BME280;35729;52.090;13.162;2024-02-21T00:46:14;101554.28;;;7.14;100.00
49835;BME280;35729;52.090;13.162;2024-02-21T00:48:42;101551.69;;;7.14;100.00
49835;BME280;35729;52.090;13.162;2024-02-21T00:51:10;101555.19;;;7.13;100.00
49835;BME280;35729;52.090;13.162;2024-02-21T00:53:42;101549.97;;;7.16;100.00
49835;BME280;35729;52.090;13.162;2024-02-21T00:56:10;101544.75;;;7.16;100.00
49835;BME280;35729;52.090;13.162;2024-02-21T00:58:38;101545.63;;;7.18;100.00
49835;BME280;35729;52.090;13.162;2024-02-21T01:01:07;101541.28;;;7.20;100.00
49835;BME280;35729;52.090;13.162;2024-02-21T01:03:35;101538.69;;;7.22;100.00
49835;BME280;35729;52.090;13.162;2024-02-21T01:06:04;101542.16;;;7.22;100.00
49835;BME280;35729;52.090;13.162;2024-02-21T01:08:32;101532.59;;;7.21;100.00
49835;BME280;35729;52.090;13.162;2024-02-21T01:11:03;101536.09;;;7.23;100.00
49835;BME280;35729;52.090;13.162;2024-02-21T01:13:32;101541.31;;;7.26;100.00
49835;BME280;35729;52.090;13.162;2024-02-21T01:16:00;101541.31;;;7.26;100.00
49835;BME280;35729;52.090;13.162;2024-02-21T01:18:29;101542.19;;;7.28;100.00
49835;BME280;35729;52.090;13.162;2024-02-21T01:20:57;101532.63;;;7.27;100.00
49835;BME280;35729;52.090;13.162;2024-02-21T01:23:25;101531.75;;;7.27;100.00
49835;BME280;35729;52.090;13.162;2024-02-21T01:25:54;101524.78;;;7.26;100.00
49835;BME280;35729;52.090;13.162;2024-02-21T01:28:25;101525.66;;;7.25;100.00
49835;BME280;35729;52.090;13.162;2024-02-21T01:30:54;101526.50;;;7.24;100.00
49835;BME280;35729;52.090;13.162;2024-02-21T01:33:22;101521.28;;;7.21;100.00
49835;BME280;35729;52.090;13.162;2024-02-21T01:35:51;101512.56;;;7.17;100.00
49835;BME280;35729;52.090;13.162;2024-02-21T01:38:19;101522.13;;;7.15;100.00
49835;BME280;35729;52.090;13.162;2024-02-21T01:40:48;101519.50;;;7.12;100.00
49835;BME280;35729;52.090;13.162;2024-02-21T01:43:18;101516.91;;;7.10;100.00
49835;BME280;35729;52.090;13.162;2024-02-21T01:45:52;101507.28;;;7.06;100.00
49835;BME280;35729;52.090;13.162;2024-02-21T01:48:22;101515.13;;;7.03;100.00
49835;BME280;35729;52.090;13.162;2024-02-21T01:50:51;101504.66;;;7.00;100.00
49835;BME280;35729;52.090;13.162;2024-02-21T01:53:22;101502.88;;;6.97;100.00
49835;BME280;35729;52.090;13.162;2024-02-21T01:55:51;101505.50;;;6.94;100.00
49835;BME280;35729;52.090;13.162;2024-02-21T01:58:21;101509.84;;;6.94;100.00
49835;BME280;35729;52.090;13.162;2024-02-21T02:00:53;101509.81;;;6.91;100.00
49835;BME280;35729;52.090;13.162;2024-02-21T02:03:24;101510.69;;;6.90;100.00
49835;BME280;35729;52.090;13.162;2024-02-21T02:05:54;101504.56;;;6.86;100.00
49835;BME280;35729;52.090;13.162;2024-02-21T02:08:22;101495.88;;;6.84;100.00
49835;BME280;35729;52.090;13.162;2024-02-21T02:10:51;101481.94;;;6.80;100.00
49835;BME280;35729;52.090;13.162;2024-02-21T02:13:20;101468.88;;;6.77;100.00
49835;BME280;35729;52.090;13.162;2024-02-21T02:15:49;101473.22;;;6.74;100.00
49835;BME280;35729;52.090;13.162;2024-02-21T02:18:20;101467.97;;;6.71;100.00
49835;BME280;35729;52.090;13.162;2024-02-21T02:20:49;101467.94;;;6.64;100.00
49835;BME280;35729;52.090;13.162;2024-02-21T02:23:23;101468.78;;;6.63;100.00
49835;BME280;35729;52.090;13.162;2024-02-21T02:25:52;101467.03;;;6.59;100.00
49835;BME280;35729;52.090;13.162;2024-02-21T02:28:21;101466.16;;;6.57;100.00
49835;BME280;35729;52.090;13.162;2024-02-21T02:30:50;101471.34;;;6.54;100.00
49835;BME280;35729;52.090;13.162;2024-02-21T02:33:19;101463.47;;;6.49;100.00
49835;BME280;35729;52.090;13.162;2024-02-21T02:35:47;101454.81;;;6.49;100.00
49835;BME280;35729;52.090;13.162;2024-02-21T02:38:16;101456.50;;;6.47;100.00
49835;BME280;35729;52.090;13.162;2024-02-21T02:40:47;101460.88;;;6.46;100.00
49835;BME280;35729;52.090;13.162;2024-02-21T02:43:15;101466.09;;;6.45;100.00
49835;BME280;35729;52.090;13.162;2024-02-21T02:45:43;101463.47;;;6.43;100.00
49835;BME280;35729;52.090;13.162;2024-02-21T02:48:12;101464.28;;;6.41;100.00
49835;BME280;35729;52.090;13.162;2024-02-21T02:50:40;101454.75;;;6.40;100.00
49835;BME280;35729;52.090;13.162;2024-02-21T02:53:09;101461.69;;;6.38;100.00
49835;BME280;35729;52.090;13.162;2024-02-21T02:55:37;101455.56;;;6.35;100.00
49835;BME280;35729;52.090;13.162;2024-02-21T02:58:08;101457.31;;;6.33;100.00
49835;BME280;35729;52.090;13.162;2024-02-21T03:00:37;101446.00;;;6.33;100.00
49835;BME280;35729;52.090;13.162;2024-02-21T03:03:05;101446.00;;;6.31;100.00
49835;BME280;35729;52.090;13.162;2024-02-21T03:05:34;101448.59;;;6.31;100.00
49835;BME280;35729;52.090;13.162;2024-02-21T03:08:03;101432.94;;;6.28;100.00
49835;BME280;35729;52.090;13.162;2024-02-21T03:10:32;101436.41;;;6.27;100.00
49835;BME280;35729;52.090;13.162;2024-02-21T03:13:01;101433.81;;;6.27;100.00
49835;BME280;35729;52.090;13.162;2024-02-21T03:15:32;101433.81;;;6.26;100.00
49835;BME280;35729;52.090;13.162;2024-02-21T03:18:00;101429.44;;;6.26;100.00
49835;BME280;35729;52.090;13.162;2024-02-21T03:20:28;101433.81;;;6.26;100.00
49835;BME280;35729;52.090;13.162;2024-02-21T03:22:57;101432.06;;;6.25;100.00
49835;BME280;35729;52.090;13.162;2024-02-21T03:25:26;101426.84;;;6.25;100.00
49835;BME280;35729;52.090;13.162;2024-02-21T03:27:54;101424.25;;;6.25;100.00
49835;BME280;35729;52.090;13.162;2024-02-21T03:30:23;101420.75;;;6.24;100.00
49835;BME280;35729;52.090;13.162;2024-02-21T03:32:54;101419.88;;;6.24;100.00
49835;BME280;35729;52.090;13.162;2024-02-21T03:35:22;101421.59;;;6.22;100.00
49835;BME280;35729;52.090;13.162;2024-02-21T03:37:52;101425.94;;;6.21;100.00
49835;BME280;35729;52.090;13.162;2024-02-21T03:40:20;101425.94;;;6.21;100.00
49835;BME280;35729;52.090;13.162;2024-02-21T03:42:49;101417.22;;;6.19;100.00
49835;BME280;35729;52.090;13.162;2024-02-21T03:45:17;101426.78;;;6.17;100.00
49835;BME280;35729;52.090;13.162;2024-02-21T03:47:45;101411.13;;;6.15;100.00
49835;BME280;35729;52.090;13.162;2024-02-21T03:50:17;101418.06;;;6.15;100.00
49835;BME280;35729;52.090;13.162;2024-02-21T03:52:45;101410.25;;;6.15;100.00
49835;BME280;35729;52.090;13.162;2024-02-21T03:55:14;101409.38;;;6.13;100.00
49835;BME280;35729;52.090;13.162;2024-02-21T03:57:42;101410.25;;;6.12;100.00
49835;BME280;35729;52.090;13.162;2024-02-21T04:00:11;101392.88;;;6.11;100.00
49835;BME280;35729;52.090;13.162;2024-02-21T04:02:40;101388.53;;;6.10;100.00
49835;BME280;35729;52.090;13.162;2024-02-21T04:05:18;101392.84;;;6.08;100.00
49835;BME280;35729;52.090;13.162;2024-02-21T04:07:46;101385.91;;;6.07;100.00
49835;BME280;35729;52.090;13.162;2024-02-21T04:10:16;101387.63;;;6.06;100.00
49835;BME280;35729;52.090;13.162;2024-02-21T04:12:45;101388.50;;;6.07;100.00
49835;BME280;35729;52.090;13.162;2024-02-21T04:15:15;101384.16;;;6.06;100.00
49835;BME280;35729;52.090;13.162;2024-02-21T04:17:44;101385.00;;;6.05;100.00
49835;BME280;35729;52.090;13.162;2024-02-21T04:20:14;101375.44;;;6.03;100.00
49835;BME280;35729;52.090;13.162;2024-02-21T04:22:46;101368.50;;;6.02;100.00
49835;BME280;35729;52.090;13.162;2024-02-21T04:25:14;101363.28;;;6.02;100.00
49835;BME280;35729;52.090;13.162;2024-02-21T04:27:43;101354.59;;;6.02;100.00
49835;BME280;35729;52.090;13.162;2024-02-21T04:30:12;101356.34;;;6.03;100.00
49835;BME280;35729;52.090;13.162;2024-02-21T04:32:47;101351.16;;;6.03;100.00
49835;BME280;35729;52.090;13.162;2024-02-21T04:35:16;101346.78;;;6.02;100.00
49835;BME280;35729;52.090;13.162;2024-02-21T04:37:47;101346.78;;;6.00;100.00
49835;BME280;35729;52.090;13.162;2024-02-21T04:40:16;101336.38;;;6.02;100.00
49835;BME280;35729;52.090;13.162;2024-02-21T04:42:44;101332.00;;;6.01;100.00
49835;BME280;35729;52.090;13.162;2024-02-21T04:45:13;101332.00;;;6.01;100.00
49835;BME280;35729;52.090;13.162;2024-02-21T04:47:42;101323.34;;;6.00;100.00
49835;BME280;35729;52.090;13.162;2024-02-21T04:50:11;101323.34;;;6.00;100.00
49835;BME280;35729;52.090;13.162;2024-02-21T04:52:39;101310.28;;;5.99;100.00
49835;BME280;35729;52.090;13.162;2024-02-21T04:55:10;101296.38;;;5.97;100.00
49835;BME280;35729;52.090;13.162;2024-02-21T04:57:39;101286.81;;;5.97;100.00
49835;BME280;35729;52.090;13.162;2024-02-21T05:00:08;101292.00;;;5.97;100.00
49835;BME280;35729;52.090;13.162;2024-02-21T05:02:37;101284.22;;;5.99;100.00
49835;BME280;35729;52.090;13.162;2024-02-21T05:05:06;101283.38;;;5.98;100.00
49835;BME280;35729;52.090;13.162;2024-02-21T05:07:35;101282.53;;;5.99;100.00
49835;BME280;35729;52.090;13.162;2024-02-21T05:10:04;101275.56;;;5.98;100.00
49835;BME280;35729;52.090;13.162;2024-02-21T05:12:32;101270.31;;;5.97;100.00
49835;BME280;35729;52.090;13.162;2024-02-21T05:15:01;101265.97;;;5.97;100.00
49835;BME280;35729;52.090;13.162;2024-02-21T05:17:29;101265.97;;;5.94;100.00
49835;BME280;35729;52.090;13.162;2024-02-21T05:19:58;101272.91;;;5.97;100.00
49835;BME280;35729;52.090;13.162;2024-02-21T05:22:26;101277.25;;;5.96;100.00
49835;BME280;35729;52.090;13.162;2024-02-21T05:24:55;101272.03;;;5.95;100.00
49835;BME280;35729;52.090;13.162;2024-02-21T05:27:23;101281.59;;;5.94;100.00
49835;BME280;35729;52.090;13.162;2024-02-21T05:29:54;101284.19;;;5.94;100.00
49835;BME280;35729;52.090;13.162;2024-02-21T05:32:23;101277.25;;;5.93;100.00
49835;BME280;35729;52.090;13.162;2024-02-21T05:34:52;101278.09;;;5.94;100.00
49835;BME280;35729;52.090;13.162;2024-02-21T05:37:20;101278.09;;;5.92;100.00
49835;BME280;35729;52.090;13.162;2024-02-21T05:39:49;101279.84;;;5.93;100.00
49835;BME280;35729;52.090;13.162;2024-02-21T05:42:17;101284.19;;;5.93;100.00
49835;BME280;35729;52.090;13.162;2024-02-21T05:44:46;101296.31;;;5.94;100.00
49835;BME280;35729;52.090;13.162;2024-02-21T05:47:17;101299.81;;;5.93;100.00
49835;BME280;35729;52.090;13.162;2024-02-21T05:49:46;101298.94;;;5.94;100.00
49835;BME280;35729;52.090;13.162;2024-02-21T05:52:15;101288.50;;;5.94;100.00
49835;BME280;35729;52.090;13.162;2024-02-21T05:54:43;101284.19;;;5.94;100.00
49835;BME280;35729;52.090;13.162;2024-02-21T05:57:12;101286.81;;;5.94;100.00
49835;BME280;35729;52.090;13.162;2024-02-21T05:59:40;101290.25;;;5.95;100.00
49835;BME280;35729;52.090;13.162;2024-02-21T06:02:09;101273.78;;;5.94;100.00
49835;BME280;35729;52.090;13.162;2024-02-21T06:04:41;101285.06;;;5.96;100.00
49835;BME280;35729;52.090;13.162;2024-02-21T06:07:09;101298.09;;;5.96;100.00
49835;BME280;35729;52.090;13.162;2024-02-21T06:09:38;101289.41;;;5.97;100.00
49835;BME280;35729;52.090;13.162;2024-02-21T06:12:07;101283.38;;;5.98;100.00
49835;BME280;35729;52.090;13.162;2024-02-21T06:14:35;101279.91;;;5.99;100.00
49835;BME280;35729;52.090;13.162;2024-02-21T06:17:10;101283.38;;;5.98;100.00
49835;BME280;35729;52.090;13.162;2024-02-21T06:19:43;101288.59;;;6.01;100.00
49835;BME280;35729;52.090;13.162;2024-02-21T06:22:11;101292.94;;;6.02;100.00
49835;BME280;35729;52.090;13.162;2024-02-21T06:24:40;101285.13;;;6.02;100.00
49835;BME280;35729;52.090;13.162;2024-02-21T06:27:08;101292.09;;;6.03;100.00
49835;BME280;35729;52.090;13.162;2024-02-21T06:29:37;101293.84;;;6.05;100.00
49835;BME280;35729;52.090;13.162;2024-02-21T06:32:06;101285.16;;;6.07;100.00
49835;BME280;35729;52.090;13.162;2024-02-21T06:34:34;101284.31;;;6.10;100.00
49835;BME280;35729;52.090;13.162;2024-02-21T06:37:05;101279.97;;;6.09;100.00
49835;BME280;35729;52.090;13.162;2024-02-21T06:39:34;101278.25;;;6.11;100.00
49835;BME280;35729;52.090;13.162;2024-02-21T06:42:03;101281.69;;;6.11;100.00
49835;BME280;35729;52.090;13.162;2024-02-21T06:44:32;101278.25;;;6.11;100.00
49835;BME280;35729;52.090;13.162;2024-02-21T06:47:05;101289.53;;;6.11;100.00
49835;BME280;35729;52.090;13.162;2024-02-21T06:49:34;101287.81;;;6.13;100.00
49835;BME280;35729;52.090;13.162;2024-02-21T06:52:05;101284.34;;;6.14;100.00
49835;BME280;35729;52.090;13.162;2024-02-21T06:54:34;101287.81;;;6.16;100.00
49835;BME280;35729;52.090;13.162;2024-02-21T06:57:05;101286.06;;;6.15;100.00
49835;BME280;35729;52.090;13.162;2024-02-21T06:59:33;101288.66;;;6.15;100.00
49835;BME280;35729;52.090;13.162;2024-02-21T07:02:02;101292.16;;;6.14;100.00
49835;BME280;35729;52.090;13.162;2024-02-21T07:04:30;101282.59;;;6.15;100.00
49835;BME280;35729;52.090;13.162;2024-02-21T07:06:59;101281.75;;;6.16;100.00
49835;BME280;35729;52.090;13.162;2024-02-21T07:09:30;101290.41;;;6.15;100.00
49835;BME280;35729;52.090;13.162;2024-02-21T07:11:59;101295.63;;;6.16;100.00
49835;BME280;35729;52.090;13.162;2024-02-21T07:14:29;101286.91;;;6.13;100.00
49835;BME280;35729;52.090;13.162;2024-02-21T07:16:57;101285.19;;;6.16;100.00
49835;BME280;35729;52.090;13.162;2024-02-21T07:19:26;101282.59;;;6.16;100.00
49835;BME280;35729;52.090;13.162;2024-02-21T07:21:54;101276.53;;;6.19;100.00
49835;BME280;35729;52.090;13.162;2024-02-21T07:24:23;101274.81;;;6.21;100.00
49835;BME280;35729;52.090;13.162;2024-02-21T07:26:54;101281.78;;;6.24;100.00
49835;BME280;35729;52.090;13.162;2024-02-21T07:29:23;101274.84;;;6.29;100.00
49835;BME280;35729;52.090;13.162;2024-02-21T07:31:51;101265.31;;;6.32;100.00
49835;BME280;35729;52.090;13.162;2024-02-21T07:34:20;101261.00;;;6.38;100.00
49835;BME280;35729;52.090;13.162;2024-02-21T07:36:48;101268.81;;;6.41;100.00
49835;BME280;35729;52.090;13.162;2024-02-21T07:39:17;101269.69;;;6.44;100.00
49835;BME280;35729;52.090;13.162;2024-02-21T07:41:45;101270.56;;;6.48;100.00
49835;BME280;35729;52.090;13.162;2024-02-21T07:44:17;101268.00;;;6.51;100.00
49835;BME280;35729;52.090;13.162;2024-02-21T07:46:45;101266.25;;;6.53;100.00
49835;BME280;35729;52.090;13.162;2024-02-21T07:49:14;101270.59;;;6.54;100.00
49835;BME280;35729;52.090;13.162;2024-02-21T07:51:42;101258.44;;;6.56;100.00
49835;BME280;35729;52.090;13.162;2024-02-21T07:54:11;101261.06;;;6.56;100.00
49835;BME280;35729;52.090;13.162;2024-02-21T07:56:39;101258.44;;;6.56;100.00
49835;BME280;35729;52.090;13.162;2024-02-21T07:59:08;101262.81;;;6.57;100.00
49835;BME280;35729;52.090;13.162;2024-02-21T08:01:41;101264.53;;;6.58;100.00
49835;BME280;35729;52.090;13.162;2024-02-21T08:04:10;101268.00;;;6.60;100.00
49835;BME280;35729;52.090;13.162;2024-02-21T08:06:38;101273.22;;;6.60;100.00
49835;BME280;35729;52.090;13.162;2024-02-21T08:09:07;101268.03;;;6.65;100.00
49835;BME280;35729;52.090;13.162;2024-02-21T08:11:35;101270.66;;;6.65;100.00
49835;BME280;35729;52.090;13.162;2024-02-21T08:14:04;101264.56;;;6.71;100.00
49835;BME280;35729;52.090;13.162;2024-02-21T08:16:32;101264.59;;;6.74;100.00
49835;BME280;35729;52.090;13.162;2024-02-21T08:19:03;101256.75;;;6.75;100.00
49835;BME280;35729;52.090;13.162;2024-02-21T08:21:32;101244.59;;;6.79;100.00
49835;BME280;35729;52.090;13.162;2024-02-21T08:24:00;101249.81;;;6.80;100.00
49835;BME280;35729;52.090;13.162;2024-02-21T08:26:29;101248.97;;;6.80;100.00
49835;BME280;35729;52.090;13.162;2024-02-21T08:28:57;101239.38;;;6.83;100.00
49835;BME280;35729;52.090;13.162;2024-02-21T08:31:27;101232.44;;;6.85;100.00
49835;BME280;35729;52.090;13.162;2024-02-21T08:33:57;101228.97;;;6.88;100.00
49835;BME280;35729;52.090;13.162;2024-02-21T08:36:31;101225.47;;;6.91;100.00
49835;BME280;35729;52.090;13.162;2024-02-21T08:38:59;101224.63;;;6.96;100.00
49835;BME280;35729;52.090;13.162;2024-02-21T08:41:30;101226.38;;;6.99;100.00
49835;BME280;35729;52.090;13.162;2024-02-21T08:43:59;101227.25;;;7.06;100.00
49835;BME280;35729;52.090;13.162;2024-02-21T08:46:28;101224.66;;;7.10;100.00
49835;BME280;35729;52.090;13.162;2024-02-21T08:48:57;101225.50;;;7.15;100.00
49835;BME280;35729;52.090;13.162;2024-02-21T08:51:25;101231.59;;;7.24;100.00
49835;BME280;35729;52.090;13.162;2024-02-21T08:53:57;101231.56;;;7.31;100.00
49835;BME280;35729;52.090;13.162;2024-02-21T08:56:26;101229.84;;;7.40;100.00
49835;BME280;35729;52.090;13.162;2024-02-21T08:58:55;101242.03;;;7.47;100.00
49835;BME280;35729;52.090;13.162;2024-02-21T09:01:24;101248.09;;;7.57;100.00
49835;BME280;35729;52.090;13.162;2024-02-21T09:03:52;101249.84;;;7.62;100.00
49835;BME280;35729;52.090;13.162;2024-02-21T09:06:22;101236.78;;;7.69;100.00
49835;BME280;35729;52.090;13.162;2024-02-21T09:08:51;101243.72;;;7.73;100.00
49835;BME280;35729;52.090;13.162;2024-02-21T09:11:22;101238.50;;;7.79;100.00
49835;BME280;35729;52.090;13.162;2024-02-21T09:13:50;101243.69;;;7.82;100.00
49835;BME280;35729;52.090;13.162;2024-02-21T09:16:19;101250.69;;;7.86;100.00
49835;BME280;35729;52.090;13.162;2024-02-21T09:18:47;101247.16;;;7.87;100.00
49835;BME280;35729;52.090;13.162;2024-02-21T09:21:15;101241.06;;;7.93;100.00
49835;BME280;35729;52.090;13.162;2024-02-21T09:23:45;101230.59;;;7.96;100.00
49835;BME280;35729;52.090;13.162;2024-02-21T09:26:13;101236.66;;;8.01;100.00
49835;BME280;35729;52.090;13.162;2024-02-21T09:28:45;101233.19;;;8.04;100.00
49835;BME280;35729;52.090;13.162;2024-02-21T09:31:13;101226.22;;;8.09;100.00
49835;BME280;35729;52.090;13.162;2024-02-21T09:33:42;101220.97;;;8.13;100.00
49835;BME280;35729;52.090;13.162;2024-02-21T09:36:10;101211.38;;;8.17;100.00
49835;BME280;35729;52.090;13.162;2024-02-21T09:38:39;101205.25;;;8.24;100.00
49835;BME280;35729;52.090;13.162;2024-02-21T09:41:17;101212.16;;;8.30;100.00
49835;BME280;35729;52.090;13.162;2024-02-21T09:43:49;101215.66;;;8.37;100.00
49835;BME280;35729;52.090;13.162;2024-02-21T09:46:21;101215.63;;;8.43;100.00
49835;BME280;35729;52.090;13.162;2024-02-21T09:49:04;101219.97;;;8.47;100.00
49835;BME280;35729;52.090;13.162;2024-02-21T09:51:38;101219.06;;;8.56;100.00
49835;BME280;35729;52.090;13.162;2024-02-21T09:54:08;101219.03;;;8.62;100.00
49835;BME280;35729;52.090;13.162;2024-02-21T09:56:37;101227.72;;;8.67;100.00
49835;BME280;35729;52.090;13.162;2024-02-21T09:59:08;101225.94;;;8.72;100.00
49835;BME280;35729;52.090;13.162;2024-02-21T10:01:37;101224.13;;;8.79;100.00
49835;BME280;35729;52.090;13.162;2024-02-21T10:04:06;101229.38;;;8.82;99.84
49835;BME280;35729;52.090;13.162;2024-02-21T10:06:34;101240.69;;;8.81;96.22
49835;BME280;35729;52.090;13.162;2024-02-21T10:09:05;101238.06;;;8.84;98.07
49835;BME280;35729;52.090;13.162;2024-02-21T10:11:34;101228.41;;;8.91;100.00
49835;BME280;35729;52.090;13.162;2024-02-21T10:14:03;101220.53;;;8.95;100.00
49835;BME280;35729;52.090;13.162;2024-02-21T10:16:35;101213.53;;;8.99;100.00
49835;BME280;35729;52.090;13.162;2024-02-21T10:19:04;101218.72;;;9.02;100.00
49835;BME280;35729;52.090;13.162;2024-02-21T10:21:32;101210.84;;;9.07;100.00
49835;BME280;35729;52.090;13.162;2024-02-21T10:24:01;101212.59;;;9.08;100.00
49835;BME280;35729;52.090;13.162;2024-02-21T10:26:29;101216.97;;;9.07;98.57
49835;BME280;35729;52.090;13.162;2024-02-21T10:28:58;101221.34;;;9.04;88.23
49835;BME280;35729;52.090;13.162;2024-02-21T10:31:27;101233.56;;;9.03;94.07
49835;BME280;35729;52.090;13.162;2024-02-21T10:34:06;101218.72;;;9.05;96.14
49835;BME280;35729;52.090;13.162;2024-02-21T10:36:35;101221.31;;;9.10;95.97
49835;BME280;35729;52.090;13.162;2024-02-21T10:39:03;101212.50;;;9.17;100.00
49835;BME280;35729;52.090;13.162;2024-02-21T10:41:32;101204.59;;;9.23;98.32
49835;BME280;35729;52.090;13.162;2024-02-21T10:44:05;101208.03;;;9.28;97.55
49835;BME280;35729;52.090;13.162;2024-02-21T10:46:35;101202.78;;;9.33;95.84
49835;BME280;35729;52.090;13.162;2024-02-21T10:49:10;101199.22;;;9.39;95.34
49835;BME280;35729;52.090;13.162;2024-02-21T10:51:43;101192.16;;;9.47;99.99
49835;BME280;35729;52.090;13.162;2024-02-21T10:54:21;101203.47;;;9.52;98.33
49835;BME280;35729;52.090;13.162;2024-02-21T10:56:53;101193.81;;;9.56;96.85
49835;BME280;35729;52.090;13.162;2024-02-21T10:59:25;101190.31;;;9.55;97.01
49835;BME280;35729;52.090;13.162;2024-02-21T11:01:55;101187.63;;;9.65;99.59
49835;BME280;35729;52.090;13.162;2024-02-21T11:04:28;101185.84;;;9.67;92.28
49835;BME280;35729;52.090;13.162;2024-02-21T11:06:57;101172.66;;;9.73;95.50
49835;BME280;35729;52.090;13.162;2024-02-21T11:09:30;101165.69;;;9.73;93.75
49835;BME280;35729;52.090;13.162;2024-02-21T11:12:01;101151.69;;;9.76;99.09
49835;BME280;35729;52.090;13.162;2024-02-21T11:14:30;101156.00;;;9.80;96.88
49835;BME280;35729;52.090;13.162;2024-02-21T11:17:01;101159.53;;;9.77;93.07
49835;BME280;35729;52.090;13.162;2024-02-21T11:19:32;101154.31;;;9.76;92.22
49835;BME280;35729;52.090;13.162;2024-02-21T11:22:01;101158.69;;;9.77;94.67
49835;BME280;35729;52.090;13.162;2024-02-21T11:24:31;101144.66;;;9.78;99.50
49835;BME280;35729;52.090;13.162;2024-02-21T11:27:08;101136.78;;;9.78;96.20
49835;BME280;35729;52.090;13.162;2024-02-21T11:29:40;101132.47;;;9.77;95.44
49835;BME280;35729;52.090;13.162;2024-02-21T11:32:09;101136.81;;;9.80;95.29
49835;BME280;35729;52.090;13.162;2024-02-21T11:34:53;101128.94;;;9.78;96.13
49835;BME280;35729;52.090;13.162;2024-02-21T11:37:24;101126.31;;;9.80;90.25
49835;BME280;35729;52.090;13.162;2024-02-21T11:39:53;101113.16;;;9.83;98.49
49835;BME280;35729;52.090;13.162;2024-02-21T11:42:22;101106.13;;;9.86;99.82
49835;BME280;35729;52.090;13.162;2024-02-21T11:44:50;101090.47;;;9.82;91.14
49835;BME280;35729;52.090;13.162;2024-02-21T11:47:19;101090.44;;;9.85;96.31
49835;BME280;35729;52.090;13.162;2024-02-21T11:49:50;101086.94;;;9.84;90.39
49835;BME280;35729;52.090;13.162;2024-02-21T11:52:21;101075.53;;;9.87;96.93
49835;BME280;35729;52.090;13.162;2024-02-21T11:54:50;101073.72;;;9.93;98.89
49835;BME280;35729;52.090;13.162;2024-02-21T11:57:20;101074.56;;;9.95;91.68
49835;BME280;35729;52.090;13.162;2024-02-21T11:59:48;101063.22;;;9.95;95.71
49835;BME280;35729;52.090;13.162;2024-02-21T12:02:20;101054.50;;;9.93;92.77
49835;BME280;35729;52.090;13.162;2024-02-21T12:04:51;101064.94;;;9.98;92.44
49835;BME280;35729;52.090;13.162;2024-02-21T12:07:21;101056.19;;;9.99;93.69
49835;BME280;35729;52.090;13.162;2024-02-21T12:09:50;101044.75;;;10.03;96.44
49835;BME280;35729;52.090;13.162;2024-02-21T12:12:20;101050.84;;;10.05;93.80
49835;BME280;35729;52.090;13.162;2024-02-21T12:14:54;101046.41;;;10.10;94.05
49835;BME280;35729;52.090;13.162;2024-02-21T12:17:29;101039.34;;;10.15;94.43
49835;BME280;35729;52.090;13.162;2024-02-21T12:20:02;101031.47;;;10.15;92.07
49835;BME280;35729;52.090;13.162;2024-02-21T12:22:35;101023.44;;;10.24;96.21
49835;BME280;35729;52.090;13.162;2024-02-21T12:25:04;101028.59;;;10.31;96.68
49835;BME280;35729;52.090;13.162;2024-02-21T12:27:33;101011.91;;;10.35;96.36
49835;BME280;35729;52.090;13.162;2024-02-21T12:30:02;101011.88;;;10.39;94.37
49835;BME280;35729;52.090;13.162;2024-02-21T12:32:35;101011.78;;;10.46;96.65
49835;BME280;35729;52.090;13.162;2024-02-21T12:35:07;101003.84;;;10.50;91.09
49835;BME280;35729;52.090;13.162;2024-02-21T12:37:36;101011.56;;;10.58;95.21
49835;BME280;35729;52.090;13.162;2024-02-21T12:40:06;101004.41;;;10.66;95.66
49835;BME280;35729;52.090;13.162;2024-02-21T12:42:36;101000.81;;;10.72;94.08
49835;BME280;35729;52.090;13.162;2024-02-21T12:45:05;100992.88;;;10.75;93.35
49835;BME280;35729;52.090;13.162;2024-02-21T12:47:34;101001.56;;;10.79;83.83
49835;BME280;35729;52.090;13.162;2024-02-21T12:50:03;100992.75;;;10.83;90.16
49835;BME280;35729;52.090;13.162;2024-02-21T12:52:35;100990.94;;;10.86;85.91